createdAt,value
2023-11-15T00:00:49.532Z,85.62
2023-11-15T00:03:37.536Z,85.64
2023-11-15T00:06:06.560Z,86.01
2023-11-15T00:08:34.773Z,86.14
2023-11-15T00:11:03.122Z,86.34
2023-11-15T00:13:31.108Z,86.63
2023-11-15T00:15:59.237Z,86.74
2023-11-15T00:18:27.870Z,86.73
2023-11-15T00:20:56.058Z,86.52
2023-11-15T00:23:24.885Z,86.79
2023-11-15T00:25:52.912Z,86.61
2023-11-15T00:28:20.941Z,86.57
2023-11-15T00:30:49.009Z,86.81
2023-11-15T00:33:17.196Z,86.98
2023-11-15T00:35:45.244Z,86.90
2023-11-15T00:38:13.574Z,87.42
2023-11-15T00:40:43.233Z,86.94
2023-11-15T00:43:11.514Z,86.92
2023-11-15T00:45:39.618Z,87.40
2023-11-15T00:48:07.717Z,87.58
2023-11-15T00:50:35.809Z,87.40
2023-11-15T00:53:04.948Z,87.95
2023-11-15T00:55:32.858Z,88.20
2023-11-15T00:58:00.857Z,88.19
2023-11-15T01:00:33.864Z,88.57
2023-11-15T01:03:02.774Z,88.53
2023-11-15T01:05:31.023Z,88.37
2023-11-15T01:07:59.392Z,88.40
2023-11-15T01:10:27.654Z,88.58
2023-11-15T01:12:55.927Z,88.69
2023-11-15T01:15:24.315Z,88.36
2023-11-15T01:17:52.620Z,88.27
2023-11-15T01:20:20.839Z,88.02
2023-11-15T01:22:49.307Z,88.11
2023-11-15T01:25:17.390Z,88.11
2023-11-15T01:27:47.454Z,88.37
2023-11-15T01:30:15.727Z,88.47
2023-11-15T01:32:44.113Z,87.66
2023-11-15T01:35:12.553Z,87.15
2023-11-15T01:37:40.588Z,86.53
2023-11-15T01:40:09.228Z,86.20
2023-11-15T01:42:37.322Z,85.96
2023-11-15T01:45:07.528Z,86.09
2023-11-15T01:47:35.856Z,86.07
2023-11-15T01:50:08.797Z,85.98
2023-11-15T01:52:38.854Z,86.10
2023-11-15T01:55:10.502Z,86.40
2023-11-15T01:57:38.965Z,86.76
2023-11-15T02:00:10.143Z,86.95
2023-11-15T02:02:42.796Z,87.02
2023-11-15T02:05:11.088Z,86.84
2023-11-15T02:07:39.938Z,86.20
2023-11-15T02:10:09.140Z,86.28
2023-11-15T02:12:37.254Z,86.54
2023-11-15T02:15:06.032Z,86.65
2023-11-15T02:17:34.287Z,87.16
2023-11-15T02:20:06.225Z,87.58
2023-11-15T02:22:35.133Z,87.63
2023-11-15T02:25:03.297Z,88.09
2023-11-15T02:27:31.280Z,88.13
2023-11-15T02:29:59.394Z,88.33
2023-11-15T02:32:27.381Z,88.35
2023-11-15T02:34:56.288Z,88.56
2023-11-15T02:37:24.260Z,89.17
2023-11-15T02:39:52.322Z,89.46
2023-11-15T02:42:20.275Z,89.18
2023-11-15T02:44:48.328Z,89.42
2023-11-15T02:47:16.365Z,89.25
2023-11-15T02:49:46.468Z,89.28
2023-11-15T02:52:14.425Z,89.23
2023-11-15T02:54:42.653Z,89.11
2023-11-15T02:57:12.933Z,89.37
2023-11-15T02:59:41.160Z,89.39
2023-11-15T03:02:09.375Z,89.37
2023-11-15T03:04:37.351Z,89.35
2023-11-15T03:07:05.276Z,89.07
2023-11-15T03:09:33.168Z,89.23
2023-11-15T03:12:01.248Z,89.07
2023-11-15T03:14:29.336Z,88.98
2023-11-15T03:17:07.437Z,89.24
2023-11-15T03:19:35.433Z,89.68
2023-11-15T03:22:03.304Z,89.99
2023-11-15T03:24:31.326Z,90.16
2023-11-15T03:26:59.440Z,89.90
2023-11-15T03:29:27.552Z,89.29
2023-11-15T03:31:55.504Z,89.48
2023-11-15T03:34:23.478Z,89.38
2023-11-15T03:36:51.671Z,89.36
2023-11-15T03:39:20.799Z,89.28
2023-11-15T03:41:48.683Z,89.02
2023-11-15T03:44:16.919Z,88.83
2023-11-15T03:46:45.017Z,88.89
2023-11-15T03:49:12.934Z,88.76
2023-11-15T03:51:40.973Z,88.73
2023-11-15T03:54:09.948Z,88.21
2023-11-15T03:56:37.908Z,88.13
2023-11-15T03:59:06.975Z,88.03
2023-11-15T04:01:37.695Z,88.24
2023-11-15T04:04:08.430Z,88.56
2023-11-15T04:06:36.434Z,88.54
2023-11-15T04:09:06.726Z,88.61
2023-11-15T04:11:40.610Z,88.66
2023-11-15T04:14:08.808Z,88.70
2023-11-15T04:16:36.719Z,88.39
2023-11-15T04:19:05.094Z,88.81
2023-11-15T04:21:33.300Z,89.17
2023-11-15T04:24:01.601Z,89.04
2023-11-15T04:26:30.110Z,88.96
2023-11-15T04:29:00.683Z,89.01
2023-11-15T04:31:28.894Z,88.91
2023-11-15T04:33:56.955Z,88.98
2023-11-15T04:36:25.407Z,89.09
2023-11-15T04:38:53.679Z,88.88
2023-11-15T04:41:21.983Z,88.62
2023-11-15T04:43:51.991Z,88.49
2023-11-15T04:46:20.672Z,88.72
2023-11-15T04:48:51.536Z,88.98
2023-11-15T04:51:20.456Z,89.23
2023-11-15T04:53:51.012Z,89.31
2023-11-15T04:56:20.527Z,88.84
2023-11-15T04:58:48.673Z,88.98
2023-11-15T05:01:18.244Z,89.41
2023-11-15T05:03:49.326Z,89.74
2023-11-15T05:06:17.741Z,89.42
2023-11-15T05:08:45.947Z,89.48
2023-11-15T05:11:14.316Z,89.68
2023-11-15T05:13:42.596Z,90.09
2023-11-15T05:16:11.152Z,89.74
2023-11-15T05:18:39.489Z,89.76
2023-11-15T05:21:08.062Z,89.36
2023-11-15T05:23:36.116Z,89.18
2023-11-15T05:26:04.642Z,89.50
2023-11-15T05:28:32.828Z,90.00
2023-11-15T05:31:01.382Z,89.84
2023-11-15T05:33:29.680Z,89.44
2023-11-15T05:35:58.148Z,89.72
2023-11-15T05:38:26.323Z,90.09
2023-11-15T05:40:54.665Z,90.04
2023-11-15T05:43:22.621Z,90.04
2023-11-15T05:45:50.643Z,89.78
2023-11-15T05:48:19.245Z,89.96
2023-11-15T05:50:47.401Z,90.25
2023-11-15T05:53:17.387Z,90.17
2023-11-15T05:55:45.367Z,89.97
2023-11-15T05:58:13.601Z,90.09
2023-11-15T06:00:41.468Z,90.51
2023-11-15T06:03:09.676Z,90.28
2023-11-15T06:05:37.805Z,89.90
2023-11-15T06:08:05.844Z,89.94
2023-11-15T06:10:33.988Z,90.18
2023-11-15T06:13:01.975Z,90.08
2023-11-15T06:15:30.229Z,90.05
2023-11-15T06:17:58.379Z,89.89
2023-11-15T06:20:26.950Z,90.05
2023-11-15T06:22:55.022Z,90.16
2023-11-15T06:25:23.204Z,90.11
2023-11-15T06:27:51.505Z,90.38
2023-11-15T06:30:20.302Z,90.48
2023-11-15T06:32:48.620Z,90.29
2023-11-15T06:35:20.488Z,89.94
2023-11-15T06:37:50.027Z,89.62
2023-11-15T06:40:19.787Z,89.59
2023-11-15T06:42:47.887Z,89.75
2023-11-15T06:45:18.692Z,89.50
2023-11-15T06:47:47.298Z,89.58
2023-11-15T06:50:17.511Z,89.69
2023-11-15T06:52:46.885Z,89.43
2023-11-15T06:55:16.659Z,88.97
2023-11-15T06:57:45.696Z,88.80
2023-11-15T07:00:14.462Z,89.12
2023-11-15T07:02:43.036Z,89.43
2023-11-15T07:05:12.122Z,89.72
2023-11-15T07:07:41.451Z,89.85
2023-11-15T07:10:09.937Z,89.60
2023-11-15T07:12:39.553Z,89.52
2023-11-15T07:15:16.610Z,89.53
2023-11-15T07:17:44.804Z,89.20
2023-11-15T07:20:14.592Z,88.89
2023-11-15T07:22:42.553Z,89.06
2023-11-15T07:25:14.092Z,89.23
2023-11-15T07:27:42.354Z,89.57
2023-11-15T07:30:13.508Z,89.63
2023-11-15T07:32:42.748Z,89.47
2023-11-15T07:35:10.768Z,89.48
2023-11-15T07:37:39.546Z,88.73
2023-11-15T07:40:13.482Z,88.71
2023-11-15T07:42:42.096Z,89.23
2023-11-15T07:45:10.765Z,89.30
2023-11-15T07:47:39.967Z,89.28
2023-11-15T07:50:10.267Z,89.78
2023-11-15T07:52:38.409Z,89.80
2023-11-15T07:55:07.077Z,89.83
2023-11-15T07:57:35.072Z,90.11
2023-11-15T08:00:05.503Z,90.47
2023-11-15T08:02:33.803Z,90.40
2023-11-15T08:05:02.126Z,90.36
2023-11-15T08:07:30.346Z,90.54
2023-11-15T08:09:58.497Z,90.28
2023-11-15T08:12:27.404Z,90.39
2023-11-15T08:14:55.587Z,90.41
2023-11-15T08:17:23.551Z,90.62
2023-11-15T08:19:51.785Z,90.32
2023-11-15T08:22:19.863Z,89.58
2023-11-15T08:24:48.298Z,89.43
2023-11-15T08:27:16.449Z,89.21
2023-11-15T08:29:44.399Z,89.03
2023-11-15T08:32:13.654Z,89.42
2023-11-15T08:34:42.673Z,89.29
2023-11-15T08:37:13.985Z,89.74
2023-11-15T08:39:43.640Z,89.61
2023-11-15T08:42:12.074Z,90.20
2023-11-15T08:44:44.808Z,89.58
2023-11-15T08:47:12.970Z,89.32
2023-11-15T08:49:40.881Z,89.03
2023-11-15T08:52:10.559Z,89.16
2023-11-15T08:54:38.615Z,89.19
2023-11-15T08:57:06.835Z,88.89
2023-11-15T08:59:37.230Z,88.88
2023-11-15T09:02:06.842Z,88.81
2023-11-15T09:04:35.445Z,88.79
2023-11-15T09:07:03.740Z,88.74
2023-11-15T09:09:39.247Z,89.13
2023-11-15T09:12:09.596Z,89.42
2023-11-15T09:14:37.923Z,89.34
2023-11-15T09:17:13.686Z,89.36
2023-11-15T09:19:41.906Z,89.13
2023-11-15T09:22:11.801Z,89.30
2023-11-15T09:24:39.997Z,89.37
2023-11-15T09:27:08.140Z,89.54
2023-11-15T09:29:36.232Z,89.69
2023-11-15T09:32:04.602Z,89.57
2023-11-15T09:34:32.756Z,89.87
2023-11-15T09:37:00.968Z,90.17
2023-11-15T09:39:30.571Z,89.51
2023-11-15T09:41:59.115Z,89.19
2023-11-15T09:44:27.526Z,88.65
2023-11-15T09:46:59.227Z,88.18
2023-11-15T09:49:28.167Z,87.75
2023-11-15T09:51:58.235Z,87.27
2023-11-15T09:54:27.426Z,87.36
2023-11-15T09:56:56.284Z,87.35
2023-11-15T09:59:24.570Z,87.50
2023-11-15T10:01:52.672Z,88.01
2023-11-15T10:04:25.351Z,88.20
2023-11-15T10:06:59.804Z,88.12
2023-11-15T10:09:42.250Z,87.70
2023-11-15T10:12:11.838Z,87.38
2023-11-15T10:14:54.373Z,87.29
2023-11-15T10:17:55.425Z,86.44
2023-11-15T10:20:27.126Z,85.69
2023-11-15T10:22:57.356Z,85.33
2023-11-15T10:25:28.314Z,85.78
2023-11-15T10:28:02.570Z,85.43
2023-11-15T10:30:30.849Z,85.37
2023-11-15T10:33:14.592Z,85.75
2023-11-15T10:35:44.626Z,85.66
2023-11-15T10:38:24.438Z,85.24
2023-11-15T10:40:53.640Z,84.87
2023-11-15T10:43:22.036Z,84.35
2023-11-15T10:45:53.413Z,83.94
2023-11-15T10:48:24.661Z,84.00
2023-11-15T10:50:59.473Z,84.26
2023-11-15T10:53:29.371Z,83.42
2023-11-15T10:55:58.871Z,83.47
2023-11-15T10:58:27.881Z,82.72
2023-11-15T11:00:56.944Z,82.17
2023-11-15T11:03:26.610Z,81.42
2023-11-15T11:06:04.126Z,80.58
2023-11-15T11:08:41.734Z,79.31
2023-11-15T11:11:10.163Z,78.79
2023-11-15T11:13:42.135Z,78.79
2023-11-15T11:16:35.798Z,79.02
2023-11-15T11:19:18.430Z,78.01
2023-11-15T11:22:05.895Z,76.43
2023-11-15T11:24:39.817Z,75.01
2023-11-15T11:27:15.534Z,74.06
2023-11-15T11:29:52.710Z,72.54
2023-11-15T11:32:28.105Z,71.87
2023-11-15T11:35:02.967Z,71.49
2023-11-15T11:37:53.872Z,70.66
2023-11-15T11:40:27.114Z,70.62
2023-11-15T11:43:11.570Z,70.86
2023-11-15T11:45:42.296Z,70.92
2023-11-15T11:48:27.403Z,70.37
2023-11-15T11:50:57.212Z,70.30
2023-11-15T11:53:25.708Z,70.44
2023-11-15T11:55:56.002Z,70.79
2023-11-15T11:58:29.391Z,70.70
2023-11-15T12:01:02.577Z,70.80
2023-11-15T12:03:32.181Z,70.96
2023-11-15T12:06:09.011Z,71.14
2023-11-15T12:08:39.977Z,70.40
2023-11-15T12:11:09.538Z,69.83
2023-11-15T12:13:49.369Z,69.20
2023-11-15T12:16:19.645Z,68.91
2023-11-15T12:19:06.409Z,68.82
2023-11-15T12:21:39.536Z,68.05
2023-11-15T12:24:08.072Z,67.69
2023-11-15T12:26:49.032Z,68.03
2023-11-15T12:29:21.333Z,68.14
2023-11-15T12:31:52.024Z,67.36
2023-11-15T12:34:21.856Z,66.95
2023-11-15T12:36:51.520Z,67.21
2023-11-15T12:39:23.295Z,67.50
2023-11-15T12:41:59.512Z,67.34
2023-11-15T12:44:27.670Z,67.12
2023-11-15T12:46:59.605Z,66.85
2023-11-15T12:49:28.085Z,67.32
2023-11-15T12:51:56.064Z,67.25
2023-11-15T12:54:24.212Z,67.08
2023-11-15T12:57:17.733Z,67.40
2023-11-15T12:59:51.006Z,67.69
2023-11-15T13:02:29.161Z,67.75
2023-11-15T13:04:58.519Z,67.70
2023-11-15T13:07:28.108Z,67.82
2023-11-15T13:09:56.510Z,67.63
2023-11-15T13:12:26.184Z,67.96
2023-11-15T13:14:56.045Z,68.20
2023-11-15T13:17:28.241Z,68.57
2023-11-15T13:20:01.529Z,68.31
2023-11-15T13:22:31.831Z,68.64
2023-11-15T13:24:59.994Z,69.14
2023-11-15T13:27:27.884Z,69.17
2023-11-15T13:29:56.001Z,69.01
2023-11-15T13:32:24.936Z,68.97
2023-11-15T13:34:54.106Z,69.20
2023-11-15T13:37:22.154Z,69.34
2023-11-15T13:39:50.220Z,68.89
2023-11-15T13:42:18.358Z,68.63
2023-11-15T13:44:46.396Z,68.77
2023-11-15T13:47:15.175Z,68.62
2023-11-15T13:49:46.497Z,68.93
2023-11-15T13:52:15.239Z,68.88
2023-11-15T13:54:47.156Z,68.60
2023-11-15T13:57:18.929Z,68.46
2023-11-15T13:59:47.357Z,68.43
2023-11-15T14:02:15.734Z,68.58
2023-11-15T14:04:44.245Z,68.73
2023-11-15T14:07:12.256Z,68.67
2023-11-15T14:09:41.043Z,68.50
2023-11-15T14:12:10.074Z,68.56
2023-11-15T14:14:44.248Z,68.92
2023-11-15T14:17:12.622Z,69.18
2023-11-15T14:19:41.355Z,68.96
2023-11-15T14:22:13.269Z,68.95
2023-11-15T14:24:41.641Z,69.23
2023-11-15T14:27:09.830Z,69.16
2023-11-15T14:29:37.864Z,69.30
2023-11-15T14:32:08.900Z,69.21
2023-11-15T14:34:37.179Z,69.53
2023-11-15T14:37:05.133Z,69.78
2023-11-15T14:39:33.268Z,69.89
2023-11-15T14:42:05.710Z,69.94
2023-11-15T14:44:34.832Z,69.76
2023-11-15T14:47:02.976Z,70.08
2023-11-15T14:49:31.115Z,70.28
2023-11-15T14:52:11.799Z,70.59
2023-11-15T14:54:47.078Z,70.80
2023-11-15T14:57:15.722Z,70.68
2023-11-15T14:59:44.980Z,70.85
2023-11-15T15:02:14.598Z,71.12
2023-11-15T15:04:45.632Z,70.99
2023-11-15T15:07:16.021Z,71.33
2023-11-15T15:09:45.407Z,71.44
2023-11-15T15:12:14.258Z,71.66
2023-11-15T15:14:43.003Z,71.63
2023-11-15T15:17:23.561Z,71.90
2023-11-15T15:19:54.809Z,71.77
2023-11-15T15:22:23.540Z,71.93
2023-11-15T15:24:51.728Z,71.75
2023-11-15T15:27:20.063Z,72.05
2023-11-15T15:29:50.452Z,72.14
2023-11-15T15:32:19.097Z,72.19
2023-11-15T15:34:47.539Z,72.40
2023-11-15T15:37:16.634Z,72.55
2023-11-15T15:39:44.761Z,72.71
2023-11-15T15:42:12.982Z,72.75
2023-11-15T15:44:41.293Z,72.92
2023-11-15T15:47:09.634Z,73.20
2023-11-15T15:49:42.829Z,73.29
2023-11-15T15:52:14.747Z,73.47
2023-11-15T15:54:43.917Z,73.60
2023-11-15T15:57:12.025Z,73.83
2023-11-15T15:59:43.507Z,73.89
2023-11-15T16:02:12.012Z,74.02
2023-11-15T16:04:42.821Z,73.74
2023-11-15T16:07:11.588Z,73.83
2023-11-15T16:09:42.831Z,73.92
2023-11-15T16:12:11.670Z,73.85
2023-11-15T16:14:39.851Z,73.95
2023-11-15T16:17:08.903Z,74.31
2023-11-15T16:19:37.175Z,74.67
2023-11-15T16:22:05.467Z,75.02
2023-11-15T16:24:33.441Z,74.78
2023-11-15T16:27:04.845Z,74.81
2023-11-15T16:29:33.660Z,74.78
2023-11-15T16:32:02.044Z,74.88
2023-11-15T16:34:30.228Z,75.00
2023-11-15T16:36:59.789Z,75.11
2023-11-15T16:39:28.077Z,75.29
2023-11-15T16:41:56.315Z,75.54
2023-11-15T16:44:26.864Z,75.33
2023-11-15T16:46:54.915Z,75.32
2023-11-15T16:49:23.574Z,75.47
2023-11-15T16:51:51.733Z,75.44
2023-11-15T16:54:20.380Z,75.62
2023-11-15T16:56:48.464Z,75.74
2023-11-15T16:59:16.447Z,75.88
2023-11-15T17:01:44.760Z,76.00
2023-11-15T17:04:12.885Z,76.05
2023-11-15T17:06:41.267Z,76.20
2023-11-15T17:09:09.454Z,76.11
2023-11-15T17:11:37.628Z,76.19
2023-11-15T17:14:07.424Z,75.75
2023-11-15T17:16:35.596Z,75.77
2023-11-15T17:19:03.757Z,75.85
2023-11-15T17:21:32.001Z,75.65
2023-11-15T17:24:00.231Z,75.47
2023-11-15T17:26:32.337Z,75.48
2023-11-15T17:29:00.654Z,75.28
2023-11-15T17:31:29.651Z,75.34
2023-11-15T17:33:57.925Z,75.36
2023-11-15T17:36:29.414Z,75.24
2023-11-15T17:38:58.021Z,75.49
2023-11-15T17:41:27.289Z,75.63
2023-11-15T17:43:55.361Z,75.25
2023-11-15T17:46:26.634Z,75.12
2023-11-15T17:48:56.574Z,75.15
2023-11-15T17:51:24.537Z,74.99
2023-11-15T17:53:54.363Z,74.94
2023-11-15T17:56:22.673Z,74.79
2023-11-15T17:58:52.361Z,74.75
2023-11-15T18:01:21.846Z,74.86
2023-11-15T18:03:50.238Z,74.98
2023-11-15T18:06:23.613Z,74.93
2023-11-15T18:08:53.002Z,74.96
2023-11-15T18:11:21.050Z,74.93
2023-11-15T18:13:49.064Z,75.05
2023-11-15T18:16:17.258Z,75.09
2023-11-15T18:18:45.383Z,75.15
2023-11-15T18:21:13.523Z,74.88
2023-11-15T18:23:42.000Z,74.84
2023-11-15T18:26:09.886Z,74.94
2023-11-15T18:28:39.295Z,74.93
2023-11-15T18:31:08.247Z,74.97
2023-11-15T18:33:37.444Z,74.92
2023-11-15T18:36:08.917Z,74.86
2023-11-15T18:38:37.945Z,74.74
2023-11-15T18:41:09.247Z,74.76
2023-11-15T18:43:37.894Z,74.82
2023-11-15T18:46:06.465Z,74.89
2023-11-15T18:48:36.147Z,74.84
2023-11-15T18:51:04.390Z,75.15
2023-11-15T18:53:32.561Z,75.03
2023-11-15T18:56:01.423Z,74.91
2023-11-15T18:58:29.622Z,75.20
2023-11-15T19:00:58.206Z,75.10
2023-11-15T19:03:26.454Z,74.80
2023-11-15T19:05:57.217Z,74.46
2023-11-15T19:08:25.347Z,74.44
2023-11-15T19:10:57.845Z,74.34
2023-11-15T19:13:28.664Z,73.74
2023-11-15T19:15:59.239Z,74.09
2023-11-15T19:18:28.031Z,74.21
2023-11-15T19:20:58.911Z,74.87
2023-11-15T19:23:27.212Z,75.63
2023-11-15T19:25:55.588Z,76.07
2023-11-15T19:28:23.540Z,76.41
2023-11-15T19:30:51.578Z,77.00
2023-11-15T19:33:22.147Z,77.49
2023-11-15T19:35:51.209Z,77.78
2023-11-15T19:38:20.229Z,78.56
2023-11-15T19:40:48.476Z,78.99
2023-11-15T19:43:16.531Z,79.55
2023-11-15T19:45:45.573Z,80.03
2023-11-15T19:48:13.872Z,80.10
2023-11-15T19:50:41.964Z,80.16
2023-11-15T19:53:10.775Z,80.79
2023-11-15T19:55:39.600Z,81.05
2023-11-15T19:58:07.927Z,81.46
2023-11-15T20:00:38.871Z,82.11
2023-11-15T20:03:08.699Z,81.82
2023-11-15T20:05:40.021Z,81.97
2023-11-15T20:08:08.307Z,82.31
2023-11-15T20:10:37.318Z,82.14
2023-11-15T20:13:06.621Z,82.15
2023-11-15T20:15:35.117Z,82.47
2023-11-15T20:18:03.692Z,82.83
2023-11-15T20:20:31.759Z,83.01
2023-11-15T20:23:01.614Z,83.22
2023-11-15T20:25:29.811Z,83.25
2023-11-15T20:27:57.897Z,83.66
2023-11-15T20:30:27.140Z,83.58
2023-11-15T20:32:56.729Z,83.72
2023-11-15T20:35:25.209Z,83.86
2023-11-15T20:37:53.385Z,84.07
2023-11-15T20:40:23.197Z,84.09
2023-11-15T20:42:51.700Z,84.09
2023-11-15T20:45:20.002Z,84.10
2023-11-15T20:47:48.347Z,83.49
2023-11-15T20:50:16.625Z,83.28
2023-11-15T20:52:44.987Z,83.37
2023-11-15T20:55:13.152Z,83.56
2023-11-15T20:57:41.181Z,83.82
2023-11-15T21:00:23.496Z,83.82
2023-11-15T21:02:52.919Z,83.71
2023-11-15T21:05:21.324Z,83.83
2023-11-15T21:07:49.323Z,84.35
2023-11-15T21:10:17.714Z,84.67
2023-11-15T21:12:47.179Z,84.82
2023-11-15T21:15:16.873Z,85.21
2023-11-15T21:17:45.829Z,85.25
2023-11-15T21:20:14.831Z,85.41
2023-11-15T21:22:44.107Z,85.96
2023-11-15T21:25:15.152Z,86.32
2023-11-15T21:27:44.008Z,86.31
2023-11-15T21:30:13.769Z,86.23
2023-11-15T21:32:42.956Z,86.28
2023-11-15T21:35:12.582Z,86.44
2023-11-15T21:37:45.706Z,86.76
2023-11-15T21:40:19.524Z,86.92
2023-11-15T21:42:49.569Z,86.96
2023-11-15T21:45:18.446Z,86.81
2023-11-15T21:47:47.936Z,86.54
2023-11-15T21:50:20.006Z,86.91
2023-11-15T21:52:51.970Z,87.03
2023-11-15T21:55:20.432Z,87.54
2023-11-15T21:57:49.048Z,87.21
2023-11-15T22:00:21.790Z,87.12
2023-11-15T22:02:50.306Z,86.96
2023-11-15T22:05:18.753Z,86.96
2023-11-15T22:07:47.876Z,86.85
2023-11-15T22:10:16.328Z,86.70
2023-11-15T22:12:45.885Z,86.50
2023-11-15T22:15:14.375Z,86.56
2023-11-15T22:17:42.507Z,86.87
2023-11-15T22:20:12.083Z,86.91
2023-11-15T22:22:40.556Z,86.69
2023-11-15T22:25:09.162Z,86.52
2023-11-15T22:27:37.405Z,86.65
2023-11-15T22:30:08.224Z,86.92
2023-11-15T22:32:36.421Z,87.00
2023-11-15T22:35:05.921Z,87.28
2023-11-15T22:37:34.381Z,87.54
2023-11-15T22:40:02.634Z,87.47
2023-11-15T22:42:30.749Z,87.55
2023-11-15T22:44:58.792Z,87.52
2023-11-15T22:47:26.793Z,87.61
2023-11-15T22:49:54.850Z,87.77
2023-11-15T22:52:22.868Z,87.95
2023-11-15T22:54:51.847Z,87.88
2023-11-15T22:57:19.909Z,87.90
2023-11-15T22:59:51.168Z,87.76
2023-11-15T23:02:20.447Z,87.77
2023-11-15T23:04:48.781Z,87.97
2023-11-15T23:07:21.867Z,88.39
2023-11-15T23:09:50.894Z,88.51
2023-11-15T23:12:18.932Z,88.12
2023-11-15T23:14:47.073Z,88.02
2023-11-15T23:17:15.157Z,87.88
2023-11-15T23:19:43.883Z,87.91
2023-11-15T23:22:12.150Z,87.92
2023-11-15T23:24:41.044Z,88.19
2023-11-15T23:27:11.165Z,88.41
2023-11-15T23:29:39.352Z,88.29
2023-11-15T23:32:08.699Z,88.25
2023-11-15T23:34:37.622Z,87.93
2023-11-15T23:37:05.991Z,87.61
2023-11-15T23:39:34.637Z,87.12
2023-11-15T23:42:02.809Z,86.89
2023-11-15T23:44:33.118Z,86.82
2023-11-15T23:47:01.303Z,86.59
2023-11-15T23:49:30.483Z,86.49
2023-11-15T23:51:58.598Z,86.72
2023-11-15T23:54:26.697Z,86.72
2023-11-15T23:56:56.437Z,86.90
2023-11-15T23:59:25.031Z,87.09
